sensor_id;sensor_type;location;lat;lon;timestamp;pressure;altitude;pressure_sealevel;temperature;humidity
52105;BME280;38103;42.776;23.112;2023-12-20T00:01:15;94298.38;;;-2.15;100.00
52105;BME280;38103;42.776;23.112;2023-12-20T00:03:41;94299.59;;;-2.19;100.00
52105;BME280;38103;42.776;23.112;2023-12-20T00:06:06;94294.38;;;-2.27;100.00
52105;BME280;38103;42.776;23.112;2023-12-20T00:08:32;94292.72;;;-2.28;100.00
52105;BME280;38103;42.776;23.112;2023-12-20T00:10:57;94292.06;;;-2.30;100.00
52105;BME280;38103;42.776;23.112;2023-12-20T00:13:22;94295.22;;;-2.37;100.00
52105;BME280;38103;42.776;23.112;2023-12-20T00:15:48;94297.75;;;-2.45;100.00
52105;BME280;38103;42.776;23.112;2023-12-20T00:18:13;94288.50;;;-2.48;100.00
52105;BME280;38103;42.776;23.112;2023-12-20T00:20:38;94283.31;;;-2.48;100.00
52105;BME280;38103;42.776;23.112;2023-12-20T00:23:04;94264.66;;;-2.51;100.00
52105;BME280;38103;42.776;23.112;2023-12-20T00:25:29;94261.34;;;-2.43;100.00
52105;BME280;38103;42.776;23.112;2023-12-20T00:27:54;94254.91;;;-2.39;100.00
52105;BME280;38103;42.776;23.112;2023-12-20T00:30:20;94263.88;;;-2.33;100.00
52105;BME280;38103;42.776;23.112;2023-12-20T00:32:45;94237.59;;;-2.39;100.00
52105;BME280;38103;42.776;23.112;2023-12-20T00:35:14;94254.53;;;-2.26;100.00
52105;BME280;38103;42.776;23.112;2023-12-20T00:37:39;94252.31;;;-2.21;100.00
52105;BME280;38103;42.776;23.112;2023-12-20T00:40:05;94243.00;;;-2.14;100.00
52105;BME280;38103;42.776;23.112;2023-12-20T00:42:31;94247.22;;;-2.13;100.00
52105;BME280;38103;42.776;23.112;2023-12-20T00:44:57;94242.41;;;-2.07;100.00
52105;BME280;38103;42.776;23.112;2023-12-20T00:47:22;94235.59;;;-2.08;100.00
52105;BME280;38103;42.776;23.112;2023-12-20T00:49:48;94230.72;;;-2.11;100.00
52105;BME280;38103;42.776;23.112;2023-12-20T00:52:13;94229.66;;;-2.19;100.00
52105;BME280;38103;42.776;23.112;2023-12-20T00:54:39;94230.94;;;-2.23;100.00
52105;BME280;38103;42.776;23.112;2023-12-20T00:57:04;94231.31;;;-2.18;100.00
52105;BME280;38103;42.776;23.112;2023-12-20T00:59:30;94228.06;;;-2.20;100.00
52105;BME280;38103;42.776;23.112;2023-12-20T01:01:55;94226.41;;;-2.21;100.00
52105;BME280;38103;42.776;23.112;2023-12-20T01:04:20;94222.59;;;-2.17;100.00
52105;BME280;38103;42.776;23.112;2023-12-20T01:06:46;94219.63;;;-2.22;100.00
52105;BME280;38103;42.776;23.112;2023-12-20T01:09:11;94219.63;;;-2.22;100.00
52105;BME280;38103;42.776;23.112;2023-12-20T01:11:37;94205.41;;;-2.18;100.00
52105;BME280;38103;42.776;23.112;2023-12-20T01:14:02;94209.31;;;-2.14;100.00
52105;BME280;38103;42.776;23.112;2023-12-20T01:16:27;94204.81;;;-2.11;100.00
52105;BME280;38103;42.776;23.112;2023-12-20T01:18:53;94205.69;;;-2.21;100.00
52105;BME280;38103;42.776;23.112;2023-12-20T01:21:18;94218.00;;;-2.23;100.00
52105;BME280;38103;42.776;23.112;2023-12-20T01:23:43;94200.81;;;-2.24;100.00
52105;BME280;38103;42.776;23.112;2023-12-20T01:26:09;94199.84;;;-2.23;100.00
52105;BME280;38103;42.776;23.112;2023-12-20T01:28:34;94169.59;;;-2.41;100.00
52105;BME280;38103;42.776;23.112;2023-12-20T01:31:00;94194.97;;;-2.26;100.00
52105;BME280;38103;42.776;23.112;2023-12-20T01:33:25;94191.06;;;-2.30;100.00
52105;BME280;38103;42.776;23.112;2023-12-20T01:35:50;94192.16;;;-2.33;100.00
52105;BME280;38103;42.776;23.112;2023-12-20T01:38:16;94187.44;;;-2.38;100.00
52105;BME280;38103;42.776;23.112;2023-12-20T01:40:44;94152.66;;;-2.53;100.00
52105;BME280;38103;42.776;23.112;2023-12-20T01:43:09;94172.03;;;-2.39;100.00
52105;BME280;38103;42.776;23.112;2023-12-20T01:45:36;94136.84;;;-2.68;100.00
52105;BME280;38103;42.776;23.112;2023-12-20T01:48:02;94167.59;;;-2.47;100.00
52105;BME280;38103;42.776;23.112;2023-12-20T01:50:30;94172.13;;;-2.49;100.00
52105;BME280;38103;42.776;23.112;2023-12-20T01:52:59;94174.69;;;-2.49;100.00
52105;BME280;38103;42.776;23.112;2023-12-20T01:55:27;94136.91;;;-2.78;100.00
52105;BME280;38103;42.776;23.112;2023-12-20T01:57:55;94171.38;;;-2.60;100.00
52105;BME280;38103;42.776;23.112;2023-12-20T02:00:21;94159.41;;;-2.61;100.00
52105;BME280;38103;42.776;23.112;2023-12-20T02:02:50;94161.31;;;-2.63;100.00
52105;BME280;38103;42.776;23.112;2023-12-20T02:05:16;94151.94;;;-2.64;100.00
52105;BME280;38103;42.776;23.112;2023-12-20T02:07:41;94152.59;;;-2.62;100.00
52105;BME280;38103;42.776;23.112;2023-12-20T02:10:07;94154.53;;;-2.64;100.00
52105;BME280;38103;42.776;23.112;2023-12-20T02:12:33;94144.44;;;-2.67;100.00
52105;BME280;38103;42.776;23.112;2023-12-20T02:14:58;94138.69;;;-2.61;100.00
52105;BME280;38103;42.776;23.112;2023-12-20T02:17:24;94133.81;;;-2.64;100.00
52105;BME280;38103;42.776;23.112;2023-12-20T02:19:49;94141.22;;;-2.69;100.00
52105;BME280;38103;42.776;23.112;2023-12-20T02:22:15;94112.94;;;-2.81;100.00
52105;BME280;38103;42.776;23.112;2023-12-20T02:24:40;94123.53;;;-2.74;100.00
52105;BME280;38103;42.776;23.112;2023-12-20T02:27:07;94122.06;;;-2.76;100.00
52105;BME280;38103;42.776;23.112;2023-12-20T02:29:33;94116.22;;;-2.78;100.00
52105;BME280;38103;42.776;23.112;2023-12-20T02:31:58;94123.16;;;-2.79;100.00
52105;BME280;38103;42.776;23.112;2023-12-20T02:34:24;94109.13;;;-2.76;100.00
52105;BME280;38103;42.776;23.112;2023-12-20T02:36:49;94107.75;;;-2.81;100.00
52105;BME280;38103;42.776;23.112;2023-12-20T02:39:15;94103.13;;;-2.77;100.00
52105;BME280;38103;42.776;23.112;2023-12-20T02:41:40;94102.84;;;-2.74;100.00
52105;BME280;38103;42.776;23.112;2023-12-20T02:44:06;94108.50;;;-2.70;100.00
52105;BME280;38103;42.776;23.112;2023-12-20T02:46:31;94108.22;;;-2.67;100.00
52105;BME280;38103;42.776;23.112;2023-12-20T02:48:56;94104.06;;;-2.60;100.00
52105;BME280;38103;42.776;23.112;2023-12-20T02:51:22;94105.06;;;-2.61;100.00
52105;BME280;38103;42.776;23.112;2023-12-20T02:53:47;94104.34;;;-2.63;100.00
52105;BME280;38103;42.776;23.112;2023-12-20T02:56:12;94109.03;;;-2.66;100.00
52105;BME280;38103;42.776;23.112;2023-12-20T02:58:39;94101.72;;;-2.71;100.00
52105;BME280;38103;42.776;23.112;2023-12-20T03:01:05;94103.66;;;-2.73;100.00
52105;BME280;38103;42.776;23.112;2023-12-20T03:03:31;94094.69;;;-2.79;100.00
52105;BME280;38103;42.776;23.112;2023-12-20T03:05:56;94100.16;;;-2.82;100.00
52105;BME280;38103;42.776;23.112;2023-12-20T03:08:22;94097.13;;;-2.77;100.00
52105;BME280;38103;42.776;23.112;2023-12-20T03:10:47;94070.59;;;-2.98;100.00
52105;BME280;38103;42.776;23.112;2023-12-20T03:13:12;94102.91;;;-2.84;100.00
52105;BME280;38103;42.776;23.112;2023-12-20T03:15:38;94095.19;;;-2.94;100.00
52105;BME280;38103;42.776;23.112;2023-12-20T03:18:03;94087.75;;;-2.97;100.00
52105;BME280;38103;42.776;23.112;2023-12-20T03:20:29;94095.06;;;-2.92;100.00
52105;BME280;38103;42.776;23.112;2023-12-20T03:22:58;94085.81;;;-2.95;100.00
52105;BME280;38103;42.776;23.112;2023-12-20T03:25:23;94072.31;;;-3.07;100.00
52105;BME280;38103;42.776;23.112;2023-12-20T03:27:49;94089.34;;;-2.96;100.00
52105;BME280;38103;42.776;23.112;2023-12-20T03:30:14;94083.38;;;-2.96;100.00
52105;BME280;38103;42.776;23.112;2023-12-20T03:32:39;94090.19;;;-2.95;100.00
52105;BME280;38103;42.776;23.112;2023-12-20T03:35:05;94034.88;;;-3.31;100.00
52105;BME280;38103;42.776;23.112;2023-12-20T03:37:31;94076.22;;;-3.03;100.00
52105;BME280;38103;42.776;23.112;2023-12-20T03:39:56;94070.00;;;-3.10;100.00
52105;BME280;38103;42.776;23.112;2023-12-20T03:42:21;94076.13;;;-3.11;100.00
52105;BME280;38103;42.776;23.112;2023-12-20T03:44:47;94069.63;;;-3.15;100.00
52105;BME280;38103;42.776;23.112;2023-12-20T03:47:12;94072.88;;;-3.13;100.00
52105;BME280;38103;42.776;23.112;2023-12-20T03:49:38;94073.53;;;-3.11;100.00
52105;BME280;38103;42.776;23.112;2023-12-20T03:52:04;94067.69;;;-3.13;100.00
52105;BME280;38103;42.776;23.112;2023-12-20T03:54:30;94069.63;;;-3.15;100.00
52105;BME280;38103;42.776;23.112;2023-12-20T03:56:55;94081.28;;;-3.11;100.00
52105;BME280;38103;42.776;23.112;2023-12-20T03:59:20;94065.78;;;-3.11;100.00
52105;BME280;38103;42.776;23.112;2023-12-20T04:01:46;94064.16;;;-3.12;100.00
52105;BME280;38103;42.776;23.112;2023-12-20T04:04:13;94065.13;;;-3.13;100.00
52105;BME280;38103;42.776;23.112;2023-12-20T04:06:39;94063.84;;;-3.09;100.00
52105;BME280;38103;42.776;23.112;2023-12-20T04:09:04;94058.38;;;-3.06;100.00
52105;BME280;38103;42.776;23.112;2023-12-20T04:11:29;94046.94;;;-3.03;100.00
52105;BME280;38103;42.776;23.112;2023-12-20T04:13:55;94055.50;;;-3.03;100.00
52105;BME280;38103;42.776;23.112;2023-12-20T04:16:21;94054.25;;;-2.98;100.00
52105;BME280;38103;42.776;23.112;2023-12-20T04:18:46;94050.06;;;-2.99;100.00
52105;BME280;38103;42.776;23.112;2023-12-20T04:21:11;94030.59;;;-3.04;100.00
52105;BME280;38103;42.776;23.112;2023-12-20T04:23:37;94043.59;;;-2.95;100.00
52105;BME280;38103;42.776;23.112;2023-12-20T04:26:02;94046.03;;;-2.94;100.00
52105;BME280;38103;42.776;23.112;2023-12-20T04:28:27;94043.03;;;-2.89;100.00
52105;BME280;38103;42.776;23.112;2023-12-20T04:30:55;94039.75;;;-2.91;100.00
52105;BME280;38103;42.776;23.112;2023-12-20T04:33:21;94040.88;;;-2.94;100.00
52105;BME280;38103;42.776;23.112;2023-12-20T04:35:46;94033.25;;;-2.95;100.00
52105;BME280;38103;42.776;23.112;2023-12-20T04:38:12;94039.25;;;-2.95;100.00
52105;BME280;38103;42.776;23.112;2023-12-20T04:40:37;94003.41;;;-3.08;100.00
52105;BME280;38103;42.776;23.112;2023-12-20T04:43:03;94037.25;;;-2.83;100.00
52105;BME280;38103;42.776;23.112;2023-12-20T04:45:28;94035.31;;;-2.81;100.00
52105;BME280;38103;42.776;23.112;2023-12-20T04:47:55;94027.41;;;-2.79;100.00
52105;BME280;38103;42.776;23.112;2023-12-20T04:50:20;94040.81;;;-2.84;100.00
52105;BME280;38103;42.776;23.112;2023-12-20T04:52:46;94027.19;;;-2.86;100.00
52105;BME280;38103;42.776;23.112;2023-12-20T04:55:12;94031.34;;;-2.93;100.00
52105;BME280;38103;42.776;23.112;2023-12-20T04:57:37;94018.66;;;-3.05;100.00
52105;BME280;38103;42.776;23.112;2023-12-20T05:00:03;94029.81;;;-3.04;100.00
52105;BME280;38103;42.776;23.112;2023-12-20T05:02:29;94024.69;;;-3.14;100.00
52105;BME280;38103;42.776;23.112;2023-12-20T05:04:55;94021.16;;;-3.13;100.00
52105;BME280;38103;42.776;23.112;2023-12-20T05:07:20;94023.38;;;-3.18;100.00
52105;BME280;38103;42.776;23.112;2023-12-20T05:09:45;94013.31;;;-3.21;100.00
52105;BME280;38103;42.776;23.112;2023-12-20T05:12:11;94020.69;;;-3.27;100.00
52105;BME280;38103;42.776;23.112;2023-12-20T05:14:36;94005.47;;;-3.30;100.00
52105;BME280;38103;42.776;23.112;2023-12-20T05:17:02;94007.19;;;-3.39;100.00
52105;BME280;38103;42.776;23.112;2023-12-20T05:19:28;93968.31;;;-3.65;100.00
52105;BME280;38103;42.776;23.112;2023-12-20T05:21:53;94007.47;;;-3.42;100.00
52105;BME280;38103;42.776;23.112;2023-12-20T05:24:19;93996.09;;;-3.49;100.00
52105;BME280;38103;42.776;23.112;2023-12-20T05:26:44;94000.72;;;-3.53;100.00
52105;BME280;38103;42.776;23.112;2023-12-20T05:29:09;93999.13;;;-3.54;100.00
52105;BME280;38103;42.776;23.112;2023-12-20T05:31:35;93991.22;;;-3.52;100.00
52105;BME280;38103;42.776;23.112;2023-12-20T05:34:00;93977.41;;;-3.61;100.00
52105;BME280;38103;42.776;23.112;2023-12-20T05:36:26;93998.50;;;-3.48;100.00
52105;BME280;38103;42.776;23.112;2023-12-20T05:38:51;93991.75;;;-3.49;100.00
52105;BME280;38103;42.776;23.112;2023-12-20T05:41:16;93995.56;;;-3.53;100.00
52105;BME280;38103;42.776;23.112;2023-12-20T05:43:42;93962.47;;;-3.67;100.00
52105;BME280;38103;42.776;23.112;2023-12-20T05:46:10;93985.22;;;-3.53;100.00
52105;BME280;38103;42.776;23.112;2023-12-20T05:48:35;93950.53;;;-3.68;100.00
52105;BME280;38103;42.776;23.112;2023-12-20T05:51:00;93983.59;;;-3.54;100.00
52105;BME280;38103;42.776;23.112;2023-12-20T05:53:26;93984.94;;;-3.50;100.00
52105;BME280;38103;42.776;23.112;2023-12-20T05:55:51;93980.88;;;-3.52;100.00
52105;BME280;38103;42.776;23.112;2023-12-20T05:58:17;93981.84;;;-3.53;100.00
52105;BME280;38103;42.776;23.112;2023-12-20T06:00:42;93978.16;;;-3.51;100.00
52105;BME280;38103;42.776;23.112;2023-12-20T06:03:07;93980.06;;;-3.53;100.00
52105;BME280;38103;42.776;23.112;2023-12-20T06:05:33;93977.47;;;-3.53;100.00
52105;BME280;38103;42.776;23.112;2023-12-20T06:07:58;93953.47;;;-3.63;100.00
52105;BME280;38103;42.776;23.112;2023-12-20T06:10:27;93978.28;;;-3.52;100.00
52105;BME280;38103;42.776;23.112;2023-12-20T06:12:52;93926.72;;;-3.90;100.00
52105;BME280;38103;42.776;23.112;2023-12-20T06:15:18;93976.16;;;-3.57;100.00
52105;BME280;38103;42.776;23.112;2023-12-20T06:17:43;93967.28;;;-3.54;100.00
52105;BME280;38103;42.776;23.112;2023-12-20T06:20:09;93968.09;;;-3.54;100.00
52105;BME280;38103;42.776;23.112;2023-12-20T06:22:35;93971.63;;;-3.55;100.00
52105;BME280;38103;42.776;23.112;2023-12-20T06:25:02;93975.59;;;-3.61;100.00
52105;BME280;38103;42.776;23.112;2023-12-20T06:27:28;93967.25;;;-3.73;100.00
52105;BME280;38103;42.776;23.112;2023-12-20T06:29:53;93974.72;;;-3.70;100.00
52105;BME280;38103;42.776;23.112;2023-12-20T06:32:19;93965.16;;;-3.59;100.00
52105;BME280;38103;42.776;23.112;2023-12-20T06:34:44;93970.59;;;-3.62;100.00
52105;BME280;38103;42.776;23.112;2023-12-20T06:37:10;93967.06;;;-3.61;100.00
52105;BME280;38103;42.776;23.112;2023-12-20T06:39:35;93958.94;;;-3.66;100.00
52105;BME280;38103;42.776;23.112;2023-12-20T06:42:00;93971.69;;;-3.65;100.00
52105;BME280;38103;42.776;23.112;2023-12-20T06:44:26;93968.16;;;-3.64;100.00
52105;BME280;38103;42.776;23.112;2023-12-20T06:46:51;93968.38;;;-3.57;100.00
52105;BME280;38103;42.776;23.112;2023-12-20T06:49:17;93959.81;;;-3.39;100.00
52105;BME280;38103;42.776;23.112;2023-12-20T06:51:43;93949.94;;;-3.26;100.00
52105;BME280;38103;42.776;23.112;2023-12-20T06:54:09;93951.91;;;-3.19;100.00
52105;BME280;38103;42.776;23.112;2023-12-20T06:56:34;93953.22;;;-2.97;100.00
52105;BME280;38103;42.776;23.112;2023-12-20T06:59:00;93948.69;;;-2.76;100.00
52105;BME280;38103;42.776;23.112;2023-12-20T07:01:25;93954.22;;;-2.71;100.00
52105;BME280;38103;42.776;23.112;2023-12-20T07:03:50;93957.09;;;-2.74;100.00
52105;BME280;38103;42.776;23.112;2023-12-20T07:06:16;93954.44;;;-2.83;100.00
52105;BME280;38103;42.776;23.112;2023-12-20T07:08:42;93958.66;;;-2.82;100.00
52105;BME280;38103;42.776;23.112;2023-12-20T07:11:07;93956.78;;;-2.71;100.00
52105;BME280;38103;42.776;23.112;2023-12-20T07:13:33;93953.22;;;-2.70;100.00
52105;BME280;38103;42.776;23.112;2023-12-20T07:15:58;93941.56;;;-2.74;100.00
52105;BME280;38103;42.776;23.112;2023-12-20T07:18:24;93956.50;;;-2.68;100.00
52105;BME280;38103;42.776;23.112;2023-12-20T07:20:49;93954.88;;;-2.69;100.00
52105;BME280;38103;42.776;23.112;2023-12-20T07:23:15;93948.28;;;-2.63;100.00
52105;BME280;38103;42.776;23.112;2023-12-20T07:25:40;93947.19;;;-2.52;100.00
52105;BME280;38103;42.776;23.112;2023-12-20T07:28:06;93938.50;;;-2.43;100.00
52105;BME280;38103;42.776;23.112;2023-12-20T07:30:31;93937.28;;;-2.30;100.00
52105;BME280;38103;42.776;23.112;2023-12-20T07:32:56;93932.47;;;-2.17;100.00
52105;BME280;38103;42.776;23.112;2023-12-20T07:35:23;93926.69;;;-2.02;100.00
52105;BME280;38103;42.776;23.112;2023-12-20T07:37:49;93922.81;;;-2.06;100.00
52105;BME280;38103;42.776;23.112;2023-12-20T07:40:14;93922.66;;;-1.96;100.00
52105;BME280;38103;42.776;23.112;2023-12-20T07:42:42;93912.47;;;-1.89;100.00
52105;BME280;38103;42.776;23.112;2023-12-20T07:45:07;93902.72;;;-2.04;100.00
52105;BME280;38103;42.776;23.112;2023-12-20T07:47:34;93893.31;;;-2.05;100.00
52105;BME280;38103;42.776;23.112;2023-12-20T07:49:59;93911.50;;;-1.80;100.00
52105;BME280;38103;42.776;23.112;2023-12-20T07:52:26;93889.13;;;-1.98;100.00
52105;BME280;38103;42.776;23.112;2023-12-20T07:54:51;93911.81;;;-1.92;100.00
52105;BME280;38103;42.776;23.112;2023-12-20T07:57:17;93914.72;;;-1.95;100.00
52105;BME280;38103;42.776;23.112;2023-12-20T07:59:42;93867.72;;;-2.08;100.00
52105;BME280;38103;42.776;23.112;2023-12-20T08:02:09;93911.03;;;-1.84;100.00
52105;BME280;38103;42.776;23.112;2023-12-20T08:04:34;93911.03;;;-1.84;100.00
52105;BME280;38103;42.776;23.112;2023-12-20T08:07:00;93901.81;;;-1.78;100.00
52105;BME280;38103;42.776;23.112;2023-12-20T08:09:25;93906.34;;;-1.72;100.00
52105;BME280;38103;42.776;23.112;2023-12-20T08:11:51;93905.88;;;-1.67;100.00
52105;BME280;38103;42.776;23.112;2023-12-20T08:14:16;93901.19;;;-1.63;100.00
52105;BME280;38103;42.776;23.112;2023-12-20T08:16:41;93902.78;;;-1.62;100.00
52105;BME280;38103;42.776;23.112;2023-12-20T08:19:07;93897.44;;;-1.69;100.00
52105;BME280;38103;42.776;23.112;2023-12-20T08:21:33;93895.34;;;-1.74;100.00
52105;BME280;38103;42.776;23.112;2023-12-20T08:23:58;93893.72;;;-1.75;100.00
52105;BME280;38103;42.776;23.112;2023-12-20T08:26:25;93881.09;;;-1.70;100.00
52105;BME280;38103;42.776;23.112;2023-12-20T08:28:51;93880.13;;;-1.60;100.00
52105;BME280;38103;42.776;23.112;2023-12-20T08:31:17;93879.81;;;-1.40;100.00
52105;BME280;38103;42.776;23.112;2023-12-20T08:33:47;93888.56;;;-1.25;100.00
52105;BME280;38103;42.776;23.112;2023-12-20T08:36:13;93875.44;;;-1.23;100.00
52105;BME280;38103;42.776;23.112;2023-12-20T08:38:38;93877.22;;;-1.49;100.00
52105;BME280;38103;42.776;23.112;2023-12-20T08:41:04;93867.84;;;-1.50;100.00
52105;BME280;38103;42.776;23.112;2023-12-20T08:43:34;93868.00;;;-1.35;100.00
52105;BME280;38103;42.776;23.112;2023-12-20T08:46:00;93864.41;;;-1.17;100.00
52105;BME280;38103;42.776;23.112;2023-12-20T08:48:25;93855.81;;;-1.26;100.00
52105;BME280;38103;42.776;23.112;2023-12-20T08:50:51;93861.63;;;-1.24;100.00
52105;BME280;38103;42.776;23.112;2023-12-20T08:53:18;93853.72;;;-1.30;100.00
52105;BME280;38103;42.776;23.112;2023-12-20T08:55:44;93854.19;;;-1.43;100.00
52105;BME280;38103;42.776;23.112;2023-12-20T08:58:09;93851.59;;;-1.43;100.00
52105;BME280;38103;42.776;23.112;2023-12-20T09:00:34;93808.69;;;-1.71;100.00
52105;BME280;38103;42.776;23.112;2023-12-20T09:03:01;93822.28;;;-1.52;100.00
52105;BME280;38103;42.776;23.112;2023-12-20T09:05:27;93836.06;;;-1.43;100.00
52105;BME280;38103;42.776;23.112;2023-12-20T09:07:53;93821.78;;;-1.31;100.00
52105;BME280;38103;42.776;23.112;2023-12-20T09:10:18;93822.41;;;-1.20;100.00
52105;BME280;38103;42.776;23.112;2023-12-20T09:12:53;93819.81;;;-1.12;100.00
52105;BME280;38103;42.776;23.112;2023-12-20T09:15:26;93808.09;;;-0.99;100.00
52105;BME280;38103;42.776;23.112;2023-12-20T09:17:52;93803.88;;;-0.92;100.00
52105;BME280;38103;42.776;23.112;2023-12-20T09:20:18;93791.69;;;-0.83;100.00
52105;BME280;38103;42.776;23.112;2023-12-20T09:22:43;93794.44;;;-0.85;100.00
52105;BME280;38103;42.776;23.112;2023-12-20T09:25:12;93784.41;;;-0.88;100.00
52105;BME280;38103;42.776;23.112;2023-12-20T09:27:39;93660.78;;;-1.78;100.00
52105;BME280;38103;42.776;23.112;2023-12-20T09:30:04;93775.00;;;-0.97;100.00
52105;BME280;38103;42.776;23.112;2023-12-20T09:32:31;93768.13;;;-0.82;100.00
52105;BME280;38103;42.776;23.112;2023-12-20T09:34:56;93765.25;;;-0.87;100.00
52105;BME280;38103;42.776;23.112;2023-12-20T09:37:21;93766.88;;;-0.86;100.00
52105;BME280;38103;42.776;23.112;2023-12-20T09:39:47;93768.22;;;-0.98;100.00
52105;BME280;38103;42.776;23.112;2023-12-20T09:42:17;93763.34;;;-0.93;100.00
52105;BME280;38103;42.776;23.112;2023-12-20T09:44:47;93755.13;;;-0.73;100.00
52105;BME280;38103;42.776;23.112;2023-12-20T09:47:13;93733.22;;;-0.71;100.00
52105;BME280;38103;42.776;23.112;2023-12-20T09:49:42;93752.75;;;-0.51;100.00
52105;BME280;38103;42.776;23.112;2023-12-20T09:52:09;93746.53;;;-0.42;100.00
52105;BME280;38103;42.776;23.112;2023-12-20T09:54:35;93745.50;;;-0.32;100.00
52105;BME280;38103;42.776;23.112;2023-12-20T09:57:00;93747.13;;;-0.31;100.00
52105;BME280;38103;42.776;23.112;2023-12-20T09:59:25;93723.38;;;-0.28;100.00
52105;BME280;38103;42.776;23.112;2023-12-20T10:01:51;93728.44;;;-0.03;100.00
52105;BME280;38103;42.776;23.112;2023-12-20T10:04:20;93693.31;;;0.01;100.00
52105;BME280;38103;42.776;23.112;2023-12-20T10:06:46;93708.63;;;0.35;100.00
52105;BME280;38103;42.776;23.112;2023-12-20T10:09:12;93688.34;;;0.45;100.00
52105;BME280;38103;42.776;23.112;2023-12-20T10:11:38;93684.59;;;0.63;100.00
52105;BME280;38103;42.776;23.112;2023-12-20T10:14:05;93692.13;;;0.73;100.00
52105;BME280;38103;42.776;23.112;2023-12-20T10:16:32;93679.56;;;0.92;100.00
52105;BME280;38103;42.776;23.112;2023-12-20T10:18:58;93674.28;;;1.00;100.00
52105;BME280;38103;42.776;23.112;2023-12-20T10:21:25;93673.47;;;0.99;100.00
52105;BME280;38103;42.776;23.112;2023-12-20T10:23:55;93667.72;;;0.89;100.00
52105;BME280;38103;42.776;23.112;2023-12-20T10:26:25;93665.84;;;0.98;100.00
52105;BME280;38103;42.776;23.112;2023-12-20T10:29:00;93662.44;;;0.97;100.00
52105;BME280;38103;42.776;23.112;2023-12-20T10:31:30;93663.84;;;1.00;100.00
52105;BME280;38103;42.776;23.112;2023-12-20T10:33:57;93660.88;;;1.18;100.00
52105;BME280;38103;42.776;23.112;2023-12-20T10:36:29;93649.44;;;1.19;100.00
52105;BME280;38103;42.776;23.112;2023-12-20T10:38:57;93649.19;;;1.14;100.00
52105;BME280;38103;42.776;23.112;2023-12-20T10:41:31;93647.72;;;1.27;100.00
52105;BME280;38103;42.776;23.112;2023-12-20T10:44:00;93651.06;;;1.20;100.00
52105;BME280;38103;42.776;23.112;2023-12-20T10:46:29;93645.81;;;1.36;100.00
52105;BME280;38103;42.776;23.112;2023-12-20T10:48:56;93646.31;;;1.46;100.00
52105;BME280;38103;42.776;23.112;2023-12-20T10:51:23;93646.63;;;1.36;100.00
52105;BME280;38103;42.776;23.112;2023-12-20T10:53:50;93629.06;;;1.23;100.00
52105;BME280;38103;42.776;23.112;2023-12-20T10:56:17;93621.66;;;1.27;100.00
52105;BME280;38103;42.776;23.112;2023-12-20T10:58:49;93612.81;;;1.43;100.00
52105;BME280;38103;42.776;23.112;2023-12-20T11:01:16;93617.22;;;1.64;100.00
52105;BME280;38103;42.776;23.112;2023-12-20T11:03:48;93607.91;;;1.55;100.00
52105;BME280;38103;42.776;23.112;2023-12-20T11:06:33;93594.31;;;2.10;100.00
52105;BME280;38103;42.776;23.112;2023-12-20T11:09:14;93600.94;;;2.13;100.00
52105;BME280;38103;42.776;23.112;2023-12-20T11:14:41;93592.13;;;1.85;100.00
52105;BME280;38103;42.776;23.112;2023-12-20T11:17:11;93593.78;;;1.64;100.00
52105;BME280;38103;42.776;23.112;2023-12-20T11:22:21;93581.00;;;1.48;100.00
52105;BME280;38103;42.776;23.112;2023-12-20T11:24:48;93569.16;;;1.23;100.00
52105;BME280;38103;42.776;23.112;2023-12-20T11:27:14;93570.34;;;1.20;100.00
52105;BME280;38103;42.776;23.112;2023-12-20T11:29:40;93560.66;;;0.92;100.00
52105;BME280;38103;42.776;23.112;2023-12-20T11:35:20;93558.91;;;0.99;100.00
52105;BME280;38103;42.776;23.112;2023-12-20T11:37:46;93546.41;;;1.10;100.00
52105;BME280;38103;42.776;23.112;2023-12-20T11:40:16;93541.94;;;1.26;100.00
52105;BME280;38103;42.776;23.112;2023-12-20T11:42:46;93539.97;;;1.28;100.00
52105;BME280;38103;42.776;23.112;2023-12-20T11:45:15;93528.94;;;1.26;100.00
52105;BME280;38103;42.776;23.112;2023-12-20T11:47:48;93527.38;;;1.60;100.00
52105;BME280;38103;42.776;23.112;2023-12-20T11:50:19;93516.88;;;1.47;100.00
52105;BME280;38103;42.776;23.112;2023-12-20T11:52:45;93499.72;;;1.59;100.00
52105;BME280;38103;42.776;23.112;2023-12-20T11:55:10;93507.41;;;2.03;100.00
52105;BME280;38103;42.776;23.112;2023-12-20T11:57:36;93501.34;;;2.38;100.00
52105;BME280;38103;42.776;23.112;2023-12-20T12:00:04;93500.66;;;2.78;100.00
52105;BME280;38103;42.776;23.112;2023-12-20T12:02:30;93469.41;;;3.06;100.00
52105;BME280;38103;42.776;23.112;2023-12-20T12:04:55;93487.50;;;3.55;100.00
52105;BME280;38103;42.776;23.112;2023-12-20T12:07:22;93470.13;;;3.95;100.00
52105;BME280;38103;42.776;23.112;2023-12-20T12:09:47;93469.25;;;4.21;100.00
52105;BME280;38103;42.776;23.112;2023-12-20T12:12:13;93462.31;;;4.41;100.00
52105;BME280;38103;42.776;23.112;2023-12-20T12:14:39;93463.03;;;4.62;100.00
52105;BME280;38103;42.776;23.112;2023-12-20T12:17:15;93463.91;;;4.88;100.00
52105;BME280;38103;42.776;23.112;2023-12-20T12:19:41;93460.25;;;5.21;100.00
52105;BME280;38103;42.776;23.112;2023-12-20T12:22:12;93458.44;;;5.47;100.00
52105;BME280;38103;42.776;23.112;2023-12-20T12:24:46;93460.31;;;5.66;100.00
52105;BME280;38103;42.776;23.112;2023-12-20T12:44:09;93452.50;;;3.56;100.00
52105;BME280;38103;42.776;23.112;2023-12-20T12:46:34;93453.75;;;3.19;100.00
52105;BME280;38103;42.776;23.112;2023-12-20T12:49:00;93442.06;;;2.95;100.00
52105;BME280;38103;42.776;23.112;2023-12-20T12:51:25;93428.38;;;2.72;100.00
52105;BME280;38103;42.776;23.112;2023-12-20T12:53:51;93433.56;;;2.59;100.00
52105;BME280;38103;42.776;23.112;2023-12-20T12:56:17;93445.59;;;2.53;100.00
52105;BME280;38103;42.776;23.112;2023-12-20T12:58:42;93453.63;;;2.51;100.00
52105;BME280;38103;42.776;23.112;2023-12-20T13:01:08;93446.34;;;2.33;100.00
52105;BME280;38103;42.776;23.112;2023-12-20T13:03:34;93451.16;;;2.29;100.00